createdAt,value
2019-05-02T00:01:34.785Z,17.57
2019-05-02T00:04:19.589Z,20.27
2019-05-02T00:06:44.876Z,22.37
2019-05-02T00:09:16.827Z,20.17
2019-05-02T00:11:58.251Z,20.93
2019-05-02T00:14:16.475Z,21.77
2019-05-02T00:16:49.416Z,18.73
2019-05-02T00:19:22.116Z,21.77
2019-05-02T00:21:51.080Z,19.73
2019-05-02T00:24:19.989Z,20.43
2019-05-02T00:26:48.978Z,21.40
2019-05-02T00:29:23.374Z,24.50
2019-05-02T00:31:51.577Z,19.83
2019-05-02T00:34:20.452Z,20.97
2019-05-02T00:36:49.472Z,22.97
2019-05-02T00:39:18.326Z,24.97
2019-05-02T00:41:47.406Z,24.10
2019-05-02T00:44:16.254Z,27.17
2019-05-02T00:46:45.532Z,23.70
2019-05-02T00:49:15.950Z,25.57
2019-05-02T00:51:44.792Z,27.97
2019-05-02T00:54:19.297Z,26.43
2019-05-02T00:56:47.219Z,24.17
2019-05-02T00:59:16.158Z,24.13
2019-05-02T01:01:55.527Z,31.23
2019-05-02T01:04:27.671Z,25.77
2019-05-02T01:06:56.357Z,24.60
2019-05-02T01:09:25.199Z,31.20
2019-05-02T01:11:58.534Z,26.87
2019-05-02T01:14:31.878Z,31.73
2019-05-02T01:16:58.814Z,30.40
2019-05-02T01:19:30.334Z,27.97
2019-05-02T01:21:59.260Z,33.20
2019-05-02T01:24:27.952Z,29.13
2019-05-02T01:27:07.149Z,31.20
2019-05-02T01:29:40.171Z,28.07
2019-05-02T01:32:10.544Z,35.97
2019-05-02T01:34:54.354Z,34.40
2019-05-02T01:37:22.386Z,34.67
2019-05-02T01:39:51.286Z,33.00
2019-05-02T01:42:21.604Z,31.30
2019-05-02T01:44:50.774Z,36.70
2019-05-02T01:47:19.615Z,33.77
2019-05-02T01:49:52.001Z,38.07
2019-05-02T01:52:23.813Z,34.73
2019-05-02T01:54:54.010Z,33.13
2019-05-02T01:57:22.702Z,34.00
2019-05-02T01:59:51.352Z,33.10
2019-05-02T02:02:20.912Z,37.50
2019-05-02T02:04:52.213Z,37.07
2019-05-02T02:07:21.221Z,33.00
2019-05-02T02:09:50.364Z,31.60
2019-05-02T02:12:19.251Z,36.83
2019-05-02T02:14:52.893Z,35.63
2019-05-02T02:17:19.908Z,34.60
2019-05-02T02:19:50.572Z,35.53
2019-05-02T02:22:23.718Z,37.97
2019-05-02T02:25:09.299Z,31.33
2019-05-02T02:27:38.192Z,30.67
2019-05-02T02:30:17.573Z,31.97
2019-05-02T02:32:42.685Z,33.40
2019-05-02T02:35:12.742Z,30.13
2019-05-02T02:37:52.047Z,33.70
2019-05-02T02:40:13.991Z,33.00
2019-05-02T02:42:42.696Z,40.60
2019-05-02T02:45:22.008Z,35.47
2019-05-02T02:47:52.948Z,36.70
2019-05-02T02:50:22.250Z,37.40
2019-05-02T02:52:51.084Z,35.07
2019-05-02T02:55:21.954Z,33.27
2019-05-02T02:57:52.240Z,32.73
2019-05-02T03:00:21.297Z,37.87
2019-05-02T03:02:53.150Z,34.53
2019-05-02T03:05:25.859Z,33.13
2019-05-02T03:07:59.604Z,32.47
2019-05-02T03:10:24.699Z,39.03
2019-05-02T03:13:14.893Z,37.07
2019-05-02T03:15:43.701Z,40.00
2019-05-02T03:18:12.908Z,43.03
2019-05-02T03:20:42.174Z,38.93
2019-05-02T03:23:15.132Z,37.30
2019-05-02T03:25:50.680Z,35.67
2019-05-02T03:28:18.579Z,37.83
2019-05-02T03:30:49.449Z,41.33
2019-05-02T03:33:18.238Z,40.70
2019-05-02T03:35:49.103Z,44.10
2019-05-02T03:38:17.825Z,41.77
2019-05-02T03:40:46.751Z,48.30
2019-05-02T03:43:18.929Z,43.10
2019-05-02T03:45:46.922Z,48.63
2019-05-02T03:48:18.463Z,45.70
2019-05-02T03:50:46.249Z,49.17
2019-05-02T03:53:17.705Z,54.13
2019-05-02T03:55:47.187Z,48.70
2019-05-02T03:58:17.280Z,49.93
2019-05-02T04:00:46.698Z,47.67
2019-05-02T04:03:16.269Z,51.50
2019-05-02T04:05:45.395Z,47.40
2019-05-02T04:08:20.916Z,40.47
2019-05-02T04:10:52.927Z,45.50
2019-05-02T04:13:22.278Z,37.17
2019-05-02T04:15:51.158Z,31.10
2019-05-02T04:18:21.269Z,37.50
2019-05-02T04:20:51.941Z,34.73
2019-05-02T04:23:27.428Z,33.97
2019-05-02T04:25:52.439Z,36.10
2019-05-02T04:28:22.698Z,44.50
2019-05-02T04:30:53.845Z,36.17
2019-05-02T04:33:22.417Z,34.43
2019-05-02T04:35:51.441Z,31.73
2019-05-02T04:38:31.453Z,31.63
2019-05-02T04:40:54.259Z,33.60
2019-05-02T04:43:22.905Z,31.37
2019-05-02T04:45:56.341Z,35.13
2019-05-02T04:48:23.782Z,23.73
2019-05-02T04:50:59.446Z,31.23
2019-05-02T04:53:33.405Z,29.23
2019-05-02T04:56:01.626Z,30.07
2019-05-02T04:58:29.638Z,31.90
2019-05-02T05:01:00.972Z,27.57
2019-05-02T05:03:28.490Z,31.17
2019-05-02T05:06:01.543Z,27.83
2019-05-02T05:08:31.885Z,24.13
2019-05-02T05:11:01.502Z,26.67
2019-05-02T05:13:30.255Z,24.13
2019-05-02T05:16:02.999Z,24.73
2019-05-02T05:18:29.703Z,30.43
2019-05-02T05:20:59.946Z,30.53
2019-05-02T05:23:30.462Z,31.23
2019-05-02T05:26:07.310Z,29.30
2019-05-02T05:28:40.539Z,29.03
2019-05-02T05:31:09.637Z,32.10
2019-05-02T05:33:40.147Z,32.63
2019-05-02T05:36:08.932Z,33.77
2019-05-02T05:38:40.424Z,27.43
2019-05-02T05:41:12.837Z,27.60
2019-05-02T05:43:39.147Z,29.63
2019-05-02T05:46:10.605Z,24.90
2019-05-02T05:48:40.775Z,26.70
2019-05-02T05:51:11.775Z,27.17
2019-05-02T05:53:40.931Z,28.97
2019-05-02T05:56:09.666Z,27.40
2019-05-02T05:58:39.974Z,30.40
2019-05-02T06:01:10.252Z,24.23
2019-05-02T06:03:44.589Z,24.23
2019-05-02T06:06:10.284Z,31.67
2019-05-02T06:08:53.912Z,27.97
2019-05-02T06:11:15.016Z,21.23
2019-05-02T06:13:48.464Z,22.60
2019-05-02T06:16:14.984Z,21.23
2019-05-02T06:18:43.720Z,28.37
2019-05-02T06:21:12.466Z,21.70
2019-05-02T06:23:41.547Z,25.07
2019-05-02T06:26:13.713Z,22.27
2019-05-02T06:28:41.645Z,19.80
2019-05-02T06:31:11.467Z,21.70
2019-05-02T06:33:40.365Z,18.57
2019-05-02T06:36:09.276Z,29.10
2019-05-02T06:38:38.133Z,18.10
2019-05-02T06:41:07.178Z,17.20
2019-05-02T06:43:41.069Z,14.77
2019-05-02T06:46:15.931Z,18.50
2019-05-02T06:48:40.064Z,15.37
2019-05-02T06:51:11.063Z,21.10
2019-05-02T06:53:41.280Z,16.90
2019-05-02T06:56:12.671Z,18.13
2019-05-02T06:58:41.864Z,14.47
2019-05-02T07:01:11.123Z,14.13
2019-05-02T07:03:46.340Z,16.10
2019-05-02T07:06:12.397Z,20.50
2019-05-02T07:08:41.275Z,15.30
2019-05-02T07:11:10.144Z,15.13
2019-05-02T07:13:47.234Z,11.97
2019-05-02T07:16:37.768Z,17.10
2019-05-02T07:18:59.396Z,17.47
2019-05-02T07:21:28.421Z,17.00
2019-05-02T07:24:00.124Z,14.93
2019-05-02T07:26:28.971Z,20.83
2019-05-02T07:28:57.779Z,17.80
2019-05-02T07:31:26.583Z,16.00
2019-05-02T07:33:55.479Z,16.90
2019-05-02T07:36:24.485Z,14.97
2019-05-02T07:38:57.660Z,19.87
2019-05-02T07:41:28.915Z,19.67
2019-05-02T07:44:04.465Z,18.23
2019-05-02T07:46:33.537Z,20.73
2019-05-02T07:49:02.427Z,21.63
2019-05-02T07:51:31.150Z,14.43
2019-05-02T07:54:02.265Z,16.10
2019-05-02T07:56:36.979Z,16.23
2019-05-02T07:59:05.933Z,14.43
2019-05-02T08:01:34.813Z,16.20
2019-05-02T08:04:04.783Z,16.90
2019-05-02T08:06:35.710Z,17.47
2019-05-02T08:09:09.231Z,18.73
2019-05-02T08:11:38.698Z,12.20
2019-05-02T08:14:07.524Z,11.37
2019-05-02T08:16:36.391Z,15.07
2019-05-02T08:19:06.907Z,11.00
2019-05-02T08:21:35.894Z,13.27
2019-05-02T08:24:04.698Z,16.10
2019-05-02T08:26:53.502Z,11.57
2019-05-02T08:29:18.111Z,13.37
2019-05-02T08:31:47.134Z,15.43
2019-05-02T08:34:17.607Z,11.67
2019-05-02T08:36:50.935Z,15.00
2019-05-02T08:39:26.008Z,14.17
2019-05-02T08:41:56.379Z,14.27
2019-05-02T08:44:23.593Z,16.50
2019-05-02T08:46:55.185Z,13.97
2019-05-02T08:49:25.712Z,13.70
2019-05-02T08:51:54.865Z,16.77
2019-05-02T08:54:28.025Z,14.50
2019-05-02T08:56:58.972Z,14.00
2019-05-02T08:59:26.180Z,16.90
2019-05-02T09:01:55.749Z,15.97
2019-05-02T09:04:29.155Z,18.77
2019-05-02T09:07:02.272Z,14.63
2019-05-02T09:09:31.005Z,14.90
2019-05-02T09:12:11.474Z,14.43
2019-05-02T09:14:32.233Z,15.30
2019-05-02T09:17:34.572Z,21.60
2019-05-02T09:20:01.919Z,18.50
2019-05-02T09:22:22.152Z,16.97
2019-05-02T09:24:52.042Z,16.60
2019-05-02T09:27:24.645Z,18.63
2019-05-02T09:29:53.417Z,17.90
2019-05-02T09:32:26.327Z,15.40
2019-05-02T09:34:56.704Z,14.27
2019-05-02T09:37:24.627Z,17.83
2019-05-02T09:39:53.461Z,18.83
2019-05-02T09:42:24.858Z,14.53
2019-05-02T09:44:56.890Z,18.23
2019-05-02T09:47:33.247Z,20.87
2019-05-02T09:50:02.770Z,17.77
2019-05-02T09:52:39.259Z,20.27
2019-05-02T09:55:03.046Z,19.83
2019-05-02T09:57:34.600Z,15.57
2019-05-02T10:00:05.321Z,17.03
2019-05-02T10:02:34.222Z,13.53
2019-05-02T10:05:03.093Z,16.13
2019-05-02T10:07:39.268Z,15.90
2019-05-02T10:10:16.291Z,18.90
2019-05-02T10:12:45.406Z,16.77
2019-05-02T10:15:33.584Z,14.90
2019-05-02T10:18:11.116Z,16.00
2019-05-02T10:20:36.140Z,19.87
2019-05-02T10:23:03.991Z,19.13
2019-05-02T10:25:38.563Z,16.03
2019-05-02T10:28:04.286Z,10.50
2019-05-02T10:30:37.159Z,16.73
2019-05-02T10:33:06.221Z,13.83
2019-05-02T10:35:43.523Z,14.80
2019-05-02T10:38:15.221Z,15.90
2019-05-02T10:40:42.999Z,12.20
2019-05-02T10:43:11.987Z,12.80
2019-05-02T10:45:50.469Z,24.90
2019-05-02T10:48:24.918Z,17.87
2019-05-02T10:50:45.931Z,16.97
2019-05-02T10:53:15.779Z,14.87
2019-05-02T10:55:45.374Z,16.47
2019-05-02T10:58:14.071Z,14.97
2019-05-02T11:00:45.335Z,17.10
2019-05-02T11:03:22.498Z,11.17
2019-05-02T11:06:03.650Z,13.77
2019-05-02T11:08:36.674Z,16.43
2019-05-02T11:11:06.246Z,12.70
2019-05-02T11:13:37.144Z,16.60
2019-05-02T11:16:07.603Z,27.20
2019-05-02T11:18:52.304Z,12.43
2019-05-02T11:21:22.731Z,11.83
2019-05-02T11:23:52.573Z,17.27
2019-05-02T11:26:25.144Z,16.23
2019-05-02T11:28:52.463Z,16.43
2019-05-02T11:31:21.952Z,19.60
2019-05-02T11:34:01.797Z,17.13
2019-05-02T11:36:32.862Z,16.30
2019-05-02T11:39:17.104Z,22.63
2019-05-02T11:41:36.041Z,19.40
2019-05-02T11:44:04.883Z,18.07
2019-05-02T11:46:37.465Z,19.03
2019-05-02T11:49:04.244Z,17.20
2019-05-02T11:51:32.970Z,21.33
2019-05-02T11:54:09.136Z,20.83
2019-05-02T11:56:41.135Z,14.50
2019-05-02T11:59:14.212Z,20.07
2019-05-02T12:01:57.646Z,27.00
2019-05-02T12:04:17.584Z,18.83
2019-05-02T12:06:49.918Z,19.67
2019-05-02T12:09:17.644Z,29.33
2019-05-02T12:11:47.507Z,21.50
2019-05-02T12:14:17.672Z,19.10
2019-05-02T12:16:52.785Z,34.53
2019-05-02T12:19:22.870Z,19.67
2019-05-02T12:21:56.432Z,23.33
2019-05-02T12:24:26.704Z,22.23
2019-05-02T12:26:55.696Z,21.73
2019-05-02T12:29:26.147Z,16.13
2019-05-02T12:31:58.019Z,15.47
2019-05-02T12:34:26.900Z,14.97
2019-05-02T12:36:55.712Z,17.43
2019-05-02T12:39:25.681Z,15.97
2019-05-02T12:41:56.717Z,28.73
2019-05-02T12:44:25.126Z,19.60
2019-05-02T12:46:53.995Z,18.70
2019-05-02T12:49:27.715Z,19.60
2019-05-02T12:51:53.351Z,21.53
2019-05-02T12:54:22.348Z,16.40
2019-05-02T12:56:52.874Z,19.40
2019-05-02T12:59:24.711Z,24.73
2019-05-02T13:01:56.726Z,15.17
2019-05-02T13:04:25.859Z,19.63
2019-05-02T13:06:57.990Z,20.60
2019-05-02T13:09:26.973Z,16.43
2019-05-02T13:11:57.690Z,21.63
2019-05-02T13:14:28.254Z,31.23
2019-05-02T13:17:02.215Z,15.23
2019-05-02T13:19:40.631Z,20.40
2019-05-02T13:22:08.442Z,15.13
2019-05-02T13:24:42.227Z,18.53
2019-05-02T13:27:12.667Z,12.60
2019-05-02T13:29:42.846Z,14.30
2019-05-02T13:32:18.535Z,17.50
2019-05-02T13:35:02.287Z,17.17
2019-05-02T13:37:33.568Z,26.60
2019-05-02T13:40:04.140Z,15.33
2019-05-02T13:42:35.873Z,10.03
2019-05-02T13:45:23.447Z,20.50
2019-05-02T13:47:52.466Z,15.43
2019-05-02T13:50:22.349Z,14.87
2019-05-02T13:52:57.415Z,18.53
2019-05-02T13:55:23.770Z,21.10
2019-05-02T13:57:54.384Z,16.10
2019-05-02T14:00:24.927Z,16.00
2019-05-02T14:02:53.830Z,17.73
2019-05-02T14:05:23.133Z,22.03
2019-05-02T14:08:12.154Z,26.77
2019-05-02T14:10:43.259Z,20.30
2019-05-02T14:13:12.525Z,18.83
2019-05-02T14:15:42.063Z,14.53
2019-05-02T14:18:15.882Z,19.10
2019-05-02T14:20:44.802Z,23.70
2019-05-02T14:23:14.635Z,20.67
2019-05-02T14:25:43.412Z,15.47
2019-05-02T14:28:13.874Z,16.53
2019-05-02T14:30:46.103Z,24.73
2019-05-02T14:33:23.250Z,22.00
2019-05-02T14:35:52.556Z,19.00
2019-05-02T14:38:22.086Z,23.87
2019-05-02T14:40:55.501Z,26.13
2019-05-02T14:43:47.844Z,17.47
2019-05-02T14:46:17.811Z,19.10
2019-05-02T14:48:52.240Z,19.87
2019-05-02T14:51:27.144Z,21.97
2019-05-02T14:53:56.931Z,22.10
2019-05-02T14:56:24.712Z,19.83
2019-05-02T14:58:55.400Z,21.00
2019-05-02T15:01:26.079Z,18.53
2019-05-02T15:03:58.162Z,21.97
2019-05-02T15:06:25.208Z,19.53
2019-05-02T15:08:54.162Z,22.77
2019-05-02T15:11:30.324Z,18.90
2019-05-02T15:13:54.058Z,24.00
2019-05-02T15:16:29.132Z,16.37
2019-05-02T15:18:59.431Z,16.90
2019-05-02T15:21:47.154Z,15.87
2019-05-02T15:24:14.854Z,17.80
2019-05-02T15:26:46.186Z,17.87
2019-05-02T15:29:19.641Z,20.87
2019-05-02T15:31:53.198Z,18.77
2019-05-02T15:34:27.955Z,17.90
2019-05-02T15:36:58.104Z,14.30
2019-05-02T15:41:57.303Z,18.43
2019-05-02T15:44:35.057Z,20.77
2019-05-02T15:47:07.044Z,19.37
2019-05-02T15:49:41.736Z,21.57
2019-05-02T15:52:12.548Z,19.47
2019-05-02T15:54:42.589Z,22.93
2019-05-02T15:57:12.923Z,16.33
2019-05-02T15:59:45.783Z,16.77
2019-05-02T16:02:17.522Z,17.40
2019-05-02T16:04:49.682Z,17.40
2019-05-02T16:07:22.359Z,18.67
2019-05-02T16:09:51.630Z,15.87
2019-05-02T16:12:31.970Z,16.20
2019-05-02T16:15:02.729Z,14.13
2019-05-02T16:17:38.416Z,15.33
2019-05-02T16:20:18.146Z,16.23
2019-05-02T16:22:56.217Z,18.93
2019-05-02T16:25:26.586Z,13.77
2019-05-02T16:27:57.449Z,18.60
2019-05-02T16:30:31.993Z,16.27
2019-05-02T16:33:02.827Z,15.20
2019-05-02T16:35:38.109Z,19.43
2019-05-02T16:38:09.101Z,15.33
2019-05-02T16:40:37.915Z,15.57
2019-05-02T16:43:06.697Z,18.83
2019-05-02T16:45:35.514Z,11.57
2019-05-02T16:48:04.810Z,16.13
2019-05-02T16:50:36.724Z,12.97
2019-05-02T16:53:06.770Z,15.07
2019-05-02T16:55:35.720Z,21.93
2019-05-02T17:00:42.559Z,16.73
2019-05-02T17:03:12.544Z,16.50
2019-05-02T17:05:44.122Z,12.97
2019-05-02T17:08:22.555Z,12.67
2019-05-02T17:10:57.008Z,12.60
2019-05-02T17:13:27.552Z,13.53
2019-05-02T17:16:06.889Z,12.83
2019-05-02T17:18:32.674Z,9.63
2019-05-02T17:21:01.757Z,16.40
2019-05-02T17:23:32.895Z,8.57
2019-05-02T17:26:01.628Z,15.27
2019-05-02T17:28:31.705Z,8.67
2019-05-02T17:31:00.495Z,12.13
2019-05-02T17:33:29.294Z,15.97
2019-05-02T17:35:58.247Z,10.10
2019-05-02T17:38:29.173Z,6.70
2019-05-02T17:41:06.416Z,9.33
2019-05-02T17:43:32.827Z,14.30
2019-05-02T17:46:04.169Z,9.63
2019-05-02T17:48:34.340Z,6.23
2019-05-02T17:51:22.753Z,5.83
2019-05-02T17:53:52.278Z,7.73
2019-05-02T17:56:25.084Z,8.13
2019-05-02T17:58:58.197Z,7.43
2019-05-02T18:01:26.318Z,8.87
2019-05-02T18:03:58.251Z,7.13
2019-05-02T18:06:32.948Z,6.87
2019-05-02T18:08:57.291Z,7.13
2019-05-02T18:11:29.555Z,7.97
2019-05-02T18:13:56.580Z,9.43
2019-05-02T18:16:25.291Z,6.43
2019-05-02T18:18:54.098Z,10.30
2019-05-02T18:21:26.892Z,9.47
2019-05-02T18:23:57.106Z,6.53
2019-05-02T18:26:23.962Z,11.40
2019-05-02T18:28:52.732Z,9.63
2019-05-02T18:31:21.774Z,7.43
2019-05-02T18:33:52.067Z,7.50
2019-05-02T18:36:23.700Z,7.10
2019-05-02T18:38:52.406Z,9.17
2019-05-02T18:41:22.407Z,12.73
2019-05-02T18:43:52.113Z,16.80
2019-05-02T18:46:22.301Z,9.80
2019-05-02T18:48:51.931Z,10.10
2019-05-02T18:51:21.854Z,7.63
2019-05-02T18:53:52.836Z,7.77
2019-05-02T18:56:22.178Z,7.97
2019-05-02T18:58:53.356Z,13.47
2019-05-02T19:01:21.755Z,8.30
2019-05-02T19:03:53.790Z,8.73
2019-05-02T19:06:27.985Z,13.93
2019-05-02T19:08:58.860Z,7.47
2019-05-02T19:11:31.975Z,8.57
2019-05-02T19:14:02.698Z,10.57
2019-05-02T19:16:31.944Z,12.07
2019-05-02T19:19:02.396Z,9.50
2019-05-02T19:21:36.866Z,10.10
2019-05-02T19:24:08.464Z,15.27
2019-05-02T19:26:41.676Z,11.83
2019-05-02T19:29:14.262Z,13.23
2019-05-02T19:31:46.204Z,13.27
2019-05-02T19:34:20.030Z,12.77
2019-05-02T19:36:45.373Z,11.90
2019-05-02T19:39:14.477Z,12.37
2019-05-02T19:41:43.893Z,12.63
2019-05-02T19:44:15.286Z,14.43
2019-05-02T19:46:44.518Z,11.90
2019-05-02T19:49:16.159Z,12.57
2019-05-02T19:51:43.681Z,11.00
2019-05-02T19:54:12.628Z,11.67
2019-05-02T19:56:46.207Z,13.17
2019-05-02T19:59:24.626Z,15.73
2019-05-02T20:01:56.936Z,13.53
2019-05-02T20:04:24.629Z,17.77
2019-05-02T20:06:53.363Z,12.30
2019-05-02T20:09:22.286Z,15.13
2019-05-02T20:11:52.110Z,15.23
2019-05-02T20:14:21.821Z,15.83
2019-05-02T20:16:53.448Z,12.87
2019-05-02T20:19:25.735Z,13.90
2019-05-02T20:22:02.097Z,11.90
2019-05-02T20:24:29.305Z,13.77
2019-05-02T20:26:58.605Z,16.63
2019-05-02T20:29:27.306Z,12.83
2019-05-02T20:31:56.064Z,17.97
2019-05-02T20:34:24.758Z,16.10
2019-05-02T20:36:53.523Z,13.97
2019-05-02T20:39:23.576Z,13.20
2019-05-02T20:41:53.080Z,13.33
2019-05-02T20:44:22.129Z,22.30
2019-05-02T20:46:51.651Z,14.43
2019-05-02T20:49:20.663Z,13.13
2019-05-02T20:51:51.682Z,12.10
2019-05-02T20:54:20.481Z,18.00
2019-05-02T20:56:49.300Z,15.67
2019-05-02T20:59:18.038Z,14.17
2019-05-02T21:01:46.982Z,15.50
2019-05-02T21:04:15.729Z,17.40
2019-05-02T21:06:52.703Z,16.23
2019-05-02T21:09:23.315Z,15.33
2019-05-02T21:11:53.845Z,20.00
2019-05-02T21:14:22.818Z,14.40
2019-05-02T21:16:51.621Z,18.10
2019-05-02T21:19:21.762Z,17.60
2019-05-02T21:21:52.643Z,14.73
2019-05-02T21:24:22.042Z,23.70
2019-05-02T21:26:52.479Z,15.83
2019-05-02T21:29:22.894Z,19.47
2019-05-02T21:31:52.057Z,19.80
2019-05-02T21:34:22.343Z,16.30
2019-05-02T21:36:51.874Z,16.73
2019-05-02T21:39:22.365Z,18.20
2019-05-02T21:41:51.660Z,18.97
2019-05-02T21:44:22.275Z,16.57
2019-05-02T21:46:51.879Z,19.63
2019-05-02T21:49:38.778Z,18.87
2019-05-02T21:52:09.297Z,20.77
2019-05-02T21:54:39.846Z,16.73
2019-05-02T21:57:12.074Z,22.53
2019-05-02T21:59:42.118Z,15.70
2019-05-02T22:02:12.644Z,18.30
2019-05-02T22:04:42.337Z,22.50
2019-05-02T22:07:12.184Z,18.50
2019-05-02T22:09:41.680Z,21.07
2019-05-02T22:12:12.002Z,20.23
2019-05-02T22:14:42.165Z,18.57
2019-05-02T22:17:12.708Z,16.90
2019-05-02T22:19:41.734Z,15.63
2019-05-02T22:22:12.227Z,17.67
2019-05-02T22:24:42.131Z,18.50
2019-05-02T22:27:12.414Z,21.27
2019-05-02T22:29:43.030Z,19.93
2019-05-02T22:32:32.096Z,20.17
2019-05-02T22:35:12.271Z,17.83
2019-05-02T22:38:11.706Z,23.20
2019-05-02T22:40:42.165Z,20.67
2019-05-02T22:43:13.008Z,22.10
2019-05-02T22:45:44.980Z,19.87
2019-05-02T22:48:14.295Z,19.07
2019-05-02T22:50:43.072Z,23.87
2019-05-02T22:53:13.895Z,20.17
2019-05-02T22:55:42.622Z,20.80
2019-05-02T22:58:11.324Z,18.17
2019-05-02T23:00:41.650Z,20.63
2019-05-02T23:03:12.439Z,20.87
2019-05-02T23:05:42.170Z,20.63
2019-05-02T23:08:12.599Z,23.80
2019-05-02T23:10:41.761Z,17.40
2019-05-02T23:13:10.592Z,21.73
2019-05-02T23:15:39.239Z,26.60
2019-05-02T23:18:08.010Z,24.93
2019-05-02T23:20:36.840Z,18.80
2019-05-02T23:23:05.603Z,21.17
2019-05-02T23:25:44.923Z,25.07
2019-05-02T23:28:15.251Z,21.43
2019-05-02T23:30:43.882Z,22.27
2019-05-02T23:33:13.048Z,25.47
2019-05-02T23:35:43.015Z,20.87
2019-05-02T23:38:12.573Z,23.07
2019-05-02T23:40:42.080Z,20.67
2019-05-02T23:43:12.458Z,20.50
2019-05-02T23:45:42.279Z,23.57
2019-05-02T23:48:12.614Z,23.67
2019-05-02T23:50:41.381Z,22.93
2019-05-02T23:53:10.080Z,22.83
2019-05-02T23:55:38.729Z,20.60
2019-05-02T23:58:07.734Z,20.73
